Time;durP1;ratioP1;P1;durP2;ratioP2;P2;SDS_P1;SDS_P2;PMS_P1;PMS_P2;Temp;Humidity;BMP_temperature;BMP_pressure;BME280_temperature;BME280_humidity;BME280_pressure;Samples;Min_cycle;Max_cycle;Signal;HPM_P1;HPM_P2
2022/07/18 00:01:42;;;;;;;6.90;4.70;;;;;;;24.71;45.26;102524.00;5069915;28;20025;-75
2022/07/18 00:04:07;;;;;;;6.93;4.85;;;;;;;24.62;45.46;102524.84;5073675;28;20040;-74
2022/07/18 00:06:33;;;;;;;11.93;4.97;;;;;;;24.69;45.54;102526.22;5052390;28;20037;-75
2022/07/18 00:08:58;;;;;;;7.05;4.85;;;;;;;24.60;45.49;102532.56;5052358;28;20037;-76
2022/07/18 00:11:24;;;;;;;8.25;4.75;;;;;;;24.67;44.77;102527.63;5070575;28;20029;-74
2022/07/18 00:13:51;;;;;;;10.98;4.45;;;;;;;24.68;45.00;102534.75;5036251;28;20460;-74
2022/07/18 00:16:16;;;;;;;7.55;4.70;;;;;;;24.66;45.22;102518.53;5070275;28;20047;-75
2022/07/18 00:18:42;;;;;;;7.93;4.65;;;;;;;24.68;44.87;102516.31;5070722;28;20350;-75
2022/07/18 00:21:08;;;;;;;8.57;4.85;;;;;;;24.71;44.26;102524.00;5070103;28;20036;-74
2022/07/18 00:23:33;;;;;;;10.95;5.65;;;;;;;24.63;44.12;102513.56;5070001;28;20020;-75
2022/07/18 00:25:58;;;;;;;9.57;4.88;;;;;;;24.61;44.29;102515.78;5070595;28;20029;-75
2022/07/18 00:28:24;;;;;;;8.98;5.60;;;;;;;24.65;43.89;102503.13;5068843;28;20060;-74
2022/07/18 00:30:49;;;;;;;9.55;5.40;;;;;;;24.63;43.60;102505.31;5070296;28;20028;-74
2022/07/18 00:33:15;;;;;;;12.93;6.05;;;;;;;24.60;43.52;102499.56;5069948;28;20040;-75
2022/07/18 00:35:40;;;;;;;8.45;5.05;;;;;;;24.50;43.23;102491.34;5071535;28;20037;-68
2022/07/18 00:38:05;;;;;;;10.32;5.38;;;;;;;24.41;43.30;102494.66;5070639;28;20028;-67
2022/07/18 00:40:32;;;;;;;8.93;5.22;;;;;;;24.38;42.82;102489.72;5069982;28;20052;-68
2022/07/18 00:42:57;;;;;;;8.90;5.53;;;;;;;24.49;42.41;102493.25;5070148;28;20037;-68
2022/07/18 00:45:23;;;;;;;11.27;5.82;;;;;;;24.48;42.29;102490.78;5069560;28;20039;-67
2022/07/18 00:47:51;;;;;;;11.40;5.53;;;;;;;24.48;42.10;102488.03;5070493;28;20032;-69
2022/07/18 00:50:18;;;;;;;11.60;5.43;;;;;;;24.40;42.26;102484.78;5069954;28;20044;-67
2022/07/18 00:52:44;;;;;;;9.98;5.55;;;;;;;24.33;42.04;102492.47;5048256;28;20037;-68
2022/07/18 00:55:10;;;;;;;10.55;5.95;;;;;;;24.30;41.94;102483.94;5049840;28;20044;-69
2022/07/18 00:57:37;;;;;;;10.88;5.63;;;;;;;24.23;41.99;102486.16;5050132;28;20037;-69
2022/07/18 01:02:49;;;;;;;8.98;5.72;;;;;;;24.16;42.50;102480.13;5058064;28;20039;-67
2022/07/18 01:05:15;;;;;;;8.50;5.30;;;;;;;24.18;42.56;102475.16;5090510;28;20032;-67
2022/07/18 01:07:40;;;;;;;13.30;5.15;;;;;;;24.09;43.22;102472.19;5089666;28;20043;-68
2022/07/18 01:10:06;;;;;;;9.40;5.50;;;;;;;24.08;43.36;102472.44;5071490;28;20036;-69
2022/07/18 01:12:31;;;;;;;9.30;5.22;;;;;;;24.05;43.97;102471.06;5087578;28;20423;-67
2022/07/18 01:14:58;;;;;;;11.80;5.40;;;;;;;24.00;43.92;102473.78;5069084;28;20028;-69
2022/07/18 01:17:24;;;;;;;8.52;4.88;;;;;;;23.92;44.34;102466.09;5069095;28;20036;-68
2022/07/18 01:19:49;;;;;;;8.77;5.28;;;;;;;23.85;44.45;102468.28;5069932;28;20126;-69
2022/07/18 01:22:17;;;;;;;7.93;5.57;;;;;;;23.81;44.47;102471.84;5068855;28;20136;-68
2022/07/18 01:24:43;;;;;;;7.53;5.70;;;;;;;23.80;43.53;102470.22;5069255;28;20290;-68
2022/07/18 01:27:16;;;;;;;8.82;5.75;;;;;;;23.80;43.63;102476.53;5069099;28;20036;-68
2022/07/18 01:29:43;;;;;;;10.00;6.25;;;;;;;23.74;43.29;102472.16;5051444;28;20069;-68
2022/07/18 01:32:10;;;;;;;10.32;6.13;;;;;;;23.80;43.25;102464.72;5068972;28;20051;-69
2022/07/18 01:34:36;;;;;;;8.85;5.97;;;;;;;23.86;42.66;102467.19;5068687;28;20032;-67
2022/07/18 01:37:02;;;;;;;15.15;6.40;;;;;;;23.75;43.36;102459.22;5081812;28;20139;-69
2022/07/18 01:39:28;;;;;;;12.18;5.60;;;;;;;23.81;42.78;102460.88;5089025;28;20047;-69
2022/07/18 01:42:02;;;;;;;11.05;7.07;;;;;;;23.71;42.69;102442.47;5064814;28;20028;-69
2022/07/18 01:44:29;;;;;;;9.95;6.47;;;;;;;23.72;42.54;102457.03;5068424;28;20056;-69
2022/07/18 01:46:55;;;;;;;9.43;5.85;;;;;;;23.72;42.91;102454.28;5069073;28;20094;-69
2022/07/18 01:49:21;;;;;;;9.90;6.22;;;;;;;23.66;42.92;102449.88;5069096;28;20119;-68
2022/07/18 01:51:48;;;;;;;9.88;6.15;;;;;;;23.55;43.37;102458.09;5050481;28;20052;-69
2022/07/18 01:54:14;;;;;;;8.82;6.03;;;;;;;23.52;43.54;102458.66;5052930;28;20044;-69
2022/07/18 01:56:39;;;;;;;11.52;6.57;;;;;;;23.63;43.53;102455.91;5046222;28;20037;-68
2022/07/18 01:59:05;;;;;;;11.73;6.13;;;;;;;23.44;44.46;102448.22;5049179;28;20080;-69
2022/07/18 02:01:30;;;;;;;14.30;6.35;;;;;;;23.42;44.61;102450.41;5048278;28;20041;-69
2022/07/18 02:03:56;;;;;;;7.97;5.80;;;;;;;23.45;44.95;102441.63;5074856;28;20457;-70
2022/07/18 02:06:21;;;;;;;10.70;7.13;;;;;;;23.35;45.30;102438.06;5088713;28;20036;-68
2022/07/18 02:08:47;;;;;;;10.38;6.63;;;;;;;23.36;44.77;102442.44;5086871;28;20039;-68
2022/07/18 02:11:12;;;;;;;10.65;6.53;;;;;;;23.33;45.23;102448.47;5068851;28;20040;-69
2022/07/18 02:13:38;;;;;;;14.27;7.10;;;;;;;23.40;44.74;102449.03;5050212;28;20028;-69
2022/07/18 02:16:04;;;;;;;9.85;6.40;;;;;;;23.33;44.69;102445.75;5050557;28;20047;-67
2022/07/18 02:18:32;;;;;;;13.98;6.72;;;;;;;23.23;45.45;102442.94;5067832;28;20045;-68
2022/07/18 02:20:58;;;;;;;12.15;6.65;;;;;;;23.18;45.90;102434.66;5067933;28;20037;-68
2022/07/18 02:23:24;;;;;;;8.18;5.53;;;;;;;23.16;45.84;102434.13;5068338;28;20078;-68
2022/07/18 02:25:49;;;;;;;10.85;6.43;;;;;;;23.21;45.92;102436.88;5068857;28;20041;-70
2022/07/18 02:28:16;;;;;;;7.80;5.93;;;;;;;23.15;45.75;102432.47;5068323;28;20479;-67
2022/07/18 02:30:41;;;;;;;8.88;5.88;;;;;;;22.99;46.53;102437.09;5068115;28;20040;-69
2022/07/18 02:33:07;;;;;;;10.13;5.93;;;;;;;23.04;46.18;102439.00;5068276;28;20052;-68
2022/07/18 02:35:32;;;;;;;9.35;6.35;;;;;;;23.10;45.96;102437.94;5068899;28;20028;-69
2022/07/18 02:37:58;;;;;;;11.93;6.72;;;;;;;23.01;46.02;102428.59;5083940;28;20070;-68
2022/07/18 02:40:23;;;;;;;13.38;6.55;;;;;;;23.01;45.57;102436.81;5068508;28;20542;-69
2022/07/18 02:42:48;;;;;;;13.10;7.18;;;;;;;22.98;45.98;102434.59;5068758;28;20044;-68
2022/07/18 02:45:14;;;;;;;13.98;6.75;;;;;;;22.97;45.86;102435.72;5050186;28;20033;-70
2022/07/18 02:47:39;;;;;;;14.60;6.97;;;;;;;22.96;45.79;102423.91;5067854;28;20043;-69
2022/07/18 02:50:05;;;;;;;10.77;7.40;;;;;;;23.05;45.18;102421.47;5069277;28;20472;-70
2022/07/18 02:52:31;;;;;;;13.00;8.70;;;;;;;22.92;45.75;102425.53;5066235;28;20028;-69
2022/07/18 02:54:56;;;;;;;11.40;7.13;;;;;;;22.87;45.80;102435.66;5047861;28;20041;-67
2022/07/18 02:57:23;;;;;;;11.68;7.68;;;;;;;22.94;45.12;102434.31;5048404;28;20037;-68
2022/07/18 02:59:48;;;;;;;15.52;8.35;;;;;;;22.86;45.34;102436.78;5048338;28;20485;-69
2022/07/18 03:02:14;;;;;;;10.43;7.07;;;;;;;22.79;45.80;102434.28;5048371;28;20043;-68
2022/07/18 03:04:39;;;;;;;13.95;7.88;;;;;;;22.68;46.15;102425.16;5086519;28;20036;-68
2022/07/18 03:07:05;;;;;;;13.65;7.32;;;;;;;22.72;46.09;102430.13;5069199;28;20033;-68
2022/07/18 03:09:30;;;;;;;13.07;7.35;;;;;;;22.68;45.96;102424.38;5068195;28;20555;-68
2022/07/18 03:11:56;;;;;;;13.10;7.35;;;;;;;22.63;46.60;102422.41;5067941;28;20044;-69
2022/07/18 03:14:22;;;;;;;13.68;8.05;;;;;;;22.66;46.32;102427.34;5068994;28;20056;-69
2022/07/18 03:16:48;;;;;;;15.13;8.45;;;;;;;22.65;46.43;102428.47;5069454;28;20040;-69
2022/07/18 03:19:13;;;;;;;13.43;7.47;;;;;;;22.69;46.02;102426.84;5067300;28;20041;-68
2022/07/18 03:21:38;;;;;;;12.18;8.65;;;;;;;22.68;46.08;102424.38;5067860;28;20079;-68
2022/07/18 03:24:04;;;;;;;12.55;7.70;;;;;;;22.73;45.28;102421.63;5067512;28;20067;-67
2022/07/18 03:26:29;;;;;;;13.43;9.07;;;;;;;22.72;45.60;102420.00;5067272;28;20179;-68
2022/07/18 03:28:55;;;;;;;14.25;8.57;;;;;;;22.78;45.29;102429.06;5068222;28;20017;-69
2022/07/18 03:31:20;;;;;;;13.82;8.65;;;;;;;22.78;44.90;102426.31;5067594;28;20388;-68
2022/07/18 03:33:46;;;;;;;13.32;9.23;;;;;;;22.81;45.51;102431.25;5067167;28;20036;-68
2022/07/18 03:36:11;;;;;;;11.75;7.70;;;;;;;22.79;45.21;102426.06;5067615;28;20056;-68
2022/07/18 03:38:37;;;;;;;12.57;8.32;;;;;;;22.81;44.89;102423.03;5070507;28;20063;-68
2022/07/18 03:41:03;;;;;;;12.20;8.38;;;;;;;22.79;45.07;102411.50;5071673;28;20028;-68
2022/07/18 03:43:30;;;;;;;13.43;9.20;;;;;;;22.72;44.93;102398.06;5071074;28;20068;-68
2022/07/18 03:45:56;;;;;;;13.25;8.75;;;;;;;22.59;45.45;102399.38;5052709;28;20033;-70
2022/07/18 03:48:21;;;;;;;14.02;9.60;;;;;;;22.66;45.24;102390.94;5071116;28;20455;-68
2022/07/18 03:50:47;;;;;;;16.80;9.10;;;;;;;22.62;45.12;102387.06;5070492;28;20098;-67
2022/07/18 03:53:12;;;;;;;16.55;9.32;;;;;;;22.70;44.77;102390.09;5070927;28;20028;-70
2022/07/18 03:55:38;;;;;;;14.93;8.93;;;;;;;22.57;45.16;102392.50;5070634;28;20052;-68
2022/07/18 03:58:03;;;;;;;15.43;10.15;;;;;;;22.80;44.50;102392.06;5070937;28;20036;-68
2022/07/18 04:00:29;;;;;;;16.60;9.50;;;;;;;22.69;44.89;102390.38;5070751;28;20032;-68
2022/07/18 04:02:54;;;;;;;16.00;8.73;;;;;;;22.85;44.42;102400.31;5069968;28;20167;-68
2022/07/18 04:05:19;;;;;;;13.73;9.20;;;;;;;22.86;44.01;102392.91;5070880;28;20039;-69
2022/07/18 04:07:45;;;;;;;15.07;8.63;;;;;;;22.86;43.83;102388.22;5070475;28;20028;-67
2022/07/18 04:10:11;;;;;;;12.98;8.57;;;;;;;22.79;44.17;102373.97;5070450;28;20040;-69
2022/07/18 04:12:45;;;;;;;11.57;8.63;;;;;;;22.67;44.36;102373.38;5070198;28;20055;-69
2022/07/18 04:15:11;;;;;;;14.00;8.95;;;;;;;22.77;44.18;102356.13;5070086;28;20036;-68
2022/07/18 04:17:36;;;;;;;12.82;7.82;;;;;;;22.80;43.96;102367.38;5070042;28;20098;-68
2022/07/18 04:20:02;;;;;;;13.38;8.15;;;;;;;22.86;43.88;102370.97;5069914;28;20060;-69
2022/07/18 04:22:28;;;;;;;15.55;8.48;;;;;;;22.90;43.43;102372.09;5069635;28;20128;-68
2022/07/18 04:24:53;;;;;;;17.00;8.27;;;;;;;22.90;43.68;102372.91;5069740;28;20094;-69
2022/07/18 04:27:19;;;;;;;12.45;8.57;;;;;;;22.97;43.67;102378.97;5070054;28;20040;-68
2022/07/18 04:29:44;;;;;;;15.30;8.07;;;;;;;23.07;43.01;102375.41;5069952;28;20389;-70
2022/07/18 04:32:09;;;;;;;14.77;7.60;;;;;;;23.05;42.71;102370.22;5069851;28;20161;-69
2022/07/18 04:34:35;;;;;;;15.52;8.68;;;;;;;23.01;42.60;102381.97;5069611;28;20048;-68
2022/07/18 04:37:00;;;;;;;14.52;8.57;;;;;;;23.15;42.26;102380.38;5069315;28;20581;-68
2022/07/18 04:39:25;;;;;;;9.75;7.45;;;;;;;23.22;42.36;102376.25;5069246;28;20040;-69
2022/07/18 04:41:51;;;;;;;14.20;8.55;;;;;;;22.99;43.22;102374.03;5069998;28;20032;-69
2022/07/18 04:44:16;;;;;;;12.90;6.97;;;;;;;23.27;42.17;102376.25;5069355;28;20073;-68
2022/07/18 04:46:42;;;;;;;10.52;7.38;;;;;;;23.24;41.83;102376.81;5069878;28;20045;-69
2022/07/18 04:49:07;;;;;;;12.13;7.68;;;;;;;23.26;41.33;102382.03;5068710;28;20036;-69
2022/07/18 04:51:33;;;;;;;14.68;7.88;;;;;;;23.15;42.17;102383.13;5069262;28;20170;-69
2022/07/18 04:53:58;;;;;;;13.68;7.65;;;;;;;23.22;41.37;102378.19;5069131;28;20048;-68
2022/07/18 04:56:24;;;;;;;12.00;7.15;;;;;;;23.42;41.26;102365.34;5069180;28;20057;-68
2022/07/18 04:58:49;;;;;;;13.05;7.78;;;;;;;23.43;41.64;102372.47;5069967;28;20091;-68
2022/07/18 05:01:14;;;;;;;13.45;7.72;;;;;;;23.43;41.55;102377.97;5070709;28;20036;-69
2022/07/18 05:03:40;;;;;;;9.82;6.60;;;;;;;23.63;41.34;102379.06;5089498;28;20519;-68
2022/07/18 05:06:05;;;;;;;13.35;7.28;;;;;;;23.54;41.02;102382.38;5089571;28;20063;-70
2022/07/18 05:08:31;;;;;;;12.68;6.65;;;;;;;23.62;40.83;102385.66;5088973;28;20386;-69
2022/07/18 05:10:56;;;;;;;11.70;7.70;;;;;;;23.78;40.33;102379.06;5089786;28;20027;-68
2022/07/18 05:13:22;;;;;;;12.43;7.25;;;;;;;23.84;39.73;102383.47;5089465;28;20044;-69
2022/07/18 05:15:47;;;;;;;16.33;7.53;;;;;;;23.96;39.95;102373.81;5088768;28;20039;-69
2022/07/18 05:18:12;;;;;;;9.60;6.50;;;;;;;23.96;39.64;102371.06;5078122;28;20571;-69
2022/07/18 05:20:38;;;;;;;13.77;6.60;;;;;;;23.88;40.65;102373.56;5050664;28;20037;-69
2022/07/18 05:23:03;;;;;;;12.60;6.97;;;;;;;23.98;39.91;102363.38;5050960;28;20479;-70
2022/07/18 05:25:29;;;;;;;26.98;7.88;;;;;;;24.25;39.09;102368.56;5068531;28;20071;-68
2022/07/18 05:27:54;;;;;;;11.07;6.68;;;;;;;24.28;38.83;102363.34;5068405;28;20048;-68
2022/07/18 05:30:21;;;;;;;13.68;6.55;;;;;;;24.26;38.90;102365.53;5068960;28;20035;-69
2022/07/18 05:32:47;;;;;;;10.93;6.72;;;;;;;24.26;39.14;102360.03;5050931;28;20094;-68
2022/07/18 05:35:13;;;;;;;11.57;6.78;;;;;;;24.36;38.25;102357.25;5068806;28;20060;-69
2022/07/18 05:37:39;;;;;;;11.63;6.95;;;;;;;24.27;38.90;102355.38;5068257;28;20036;-68
2022/07/18 05:40:06;;;;;;;11.25;6.30;;;;;;;24.33;38.63;102351.50;5068432;28;20044;-69
2022/07/18 05:42:32;;;;;;;11.43;6.32;;;;;;;24.55;37.79;102351.94;5067978;28;20120;-68
2022/07/18 05:44:57;;;;;;;11.57;6.65;;;;;;;24.59;37.63;102346.72;5051240;28;20028;-68
2022/07/18 05:47:23;;;;;;;13.65;6.53;;;;;;;24.36;38.35;102340.78;5068217;28;20043;-68
2022/07/18 05:49:48;;;;;;;12.20;6.88;;;;;;;24.22;38.63;102325.16;5069114;28;20032;-69
2022/07/18 05:52:13;;;;;;;13.77;6.55;;;;;;;24.20;38.76;102341.91;5068322;28;20506;-70
2022/07/18 05:54:39;;;;;;;9.73;5.97;;;;;;;24.32;38.79;102333.34;5067638;28;20036;-68
2022/07/18 05:57:05;;;;;;;11.38;6.03;;;;;;;24.28;39.35;102335.84;5068138;28;20037;-69
2022/07/18 05:59:30;;;;;;;9.20;5.95;;;;;;;24.35;39.27;102341.06;5067901;28;20100;-68
2022/07/18 06:01:55;;;;;;;10.20;6.80;;;;;;;24.34;39.15;102336.66;5075776;28;20173;-69
2022/07/18 06:04:21;;;;;;;11.45;6.45;;;;;;;24.46;39.00;102331.66;5088974;28;20036;-68
2022/07/18 06:06:48;;;;;;;10.85;5.68;;;;;;;24.38;39.24;102329.50;5088341;28;20036;-69
2022/07/18 06:09:13;;;;;;;9.98;6.28;;;;;;;24.49;39.39;102333.03;5081861;28;20037;-68
2022/07/18 06:11:39;;;;;;;12.60;6.55;;;;;;;24.55;39.16;102331.91;5067641;28;20043;-70
2022/07/18 06:14:04;;;;;;;8.20;5.63;;;;;;;24.68;39.13;102320.28;5066252;28;20024;-70
2022/07/18 06:16:31;;;;;;;8.60;5.97;;;;;;;24.61;39.37;102326.06;5067208;28;20037;-69
2022/07/18 06:18:57;;;;;;;10.15;6.10;;;;;;;24.76;38.96;102327.97;5066819;28;20079;-69
2022/07/18 06:21:23;;;;;;;13.98;6.10;;;;;;;24.80;39.30;102327.13;5067896;28;20048;-69
2022/07/18 06:23:48;;;;;;;12.73;5.95;;;;;;;24.84;39.03;102319.94;5065998;28;20040;-69
2022/07/18 06:26:13;;;;;;;13.43;5.95;;;;;;;24.88;39.03;102325.69;5049277;28;20122;-68
2022/07/18 06:28:39;;;;;;;8.23;6.35;;;;;;;24.93;38.99;102328.41;5067455;28;20400;-68
2022/07/18 06:31:04;;;;;;;11.15;6.15;;;;;;;24.99;38.58;102325.34;5067591;28;20043;-70
2022/07/18 06:33:30;;;;;;;11.20;6.50;;;;;;;24.99;38.82;102327.25;5067245;28;20036;-70
2022/07/18 06:35:56;;;;;;;9.05;6.00;;;;;;;25.09;38.47;102332.69;5067337;28;20041;-69
2022/07/18 06:38:22;;;;;;;10.50;6.05;;;;;;;25.12;38.87;102332.94;5067366;28;20020;-69
2022/07/18 06:40:47;;;;;;;11.90;6.32;;;;;;;25.24;38.48;102329.81;5067361;28;20020;-69
2022/07/18 06:43:18;;;;;;;12.35;5.82;;;;;;;25.28;38.25;102325.41;5067209;28;20040;-68
2022/07/18 06:45:44;;;;;;;9.15;6.22;;;;;;;25.31;38.24;102332.25;5066574;28;20036;-68
2022/07/18 06:48:10;;;;;;;10.20;6.50;;;;;;;25.50;37.91;102338.72;5065449;28;20048;-71
2022/07/18 06:50:35;;;;;;;7.88;5.85;;;;;;;25.48;38.23;102332.69;5067853;28;20044;-69
2022/07/18 06:53:01;;;;;;;11.80;6.03;;;;;;;25.64;38.01;102331.44;5068639;28;20032;-70
2022/07/18 06:55:26;;;;;;;13.63;6.90;;;;;;;25.77;37.96;102328.00;5067885;28;20040;-70
2022/07/18 06:57:51;;;;;;;8.57;6.50;;;;;;;25.74;38.62;102326.69;5048761;28;20036;-70
2022/07/18 07:00:17;;;;;;;10.68;6.72;;;;;;;25.98;38.71;102326.69;5067302;28;20037;-69
2022/07/18 07:02:45;;;;;;;11.68;6.50;;;;;;;25.93;38.59;102333.06;5066649;28;20071;-70
2022/07/18 07:05:11;;;;;;;10.38;6.22;;;;;;;26.03;38.09;102332.97;5067825;28;20039;-69
2022/07/18 07:07:37;;;;;;;7.90;5.72;;;;;;;26.01;38.04;102337.13;5064550;28;20032;-70
2022/07/18 07:10:03;;;;;;;12.60;6.05;;;;;;;25.94;37.61;102343.00;5067264;28;20044;-69
2022/07/18 07:12:28;;;;;;;10.20;5.85;;;;;;;25.96;36.94;102342.72;5068781;28;20418;-70
2022/07/18 07:14:54;;;;;;;8.60;5.53;;;;;;;26.11;36.30;102345.31;5052065;28;20044;-69
2022/07/18 07:17:19;;;;;;;12.48;6.70;;;;;;;26.07;36.43;102344.25;5072448;28;20085;-69
2022/07/18 07:19:45;;;;;;;13.13;6.28;;;;;;;25.78;36.90;102340.69;5070354;28;20041;-70
2022/07/18 07:22:10;;;;;;;9.75;5.75;;;;;;;26.09;36.53;102342.84;5068606;28;20266;-69
2022/07/18 07:24:38;;;;;;;9.98;6.50;;;;;;;26.18;36.35;102343.00;5070024;28;20037;-69
2022/07/18 07:27:03;;;;;;;10.43;5.68;;;;;;;26.30;36.79;102345.38;5070367;28;20044;-70
2022/07/18 07:29:29;;;;;;;11.43;6.45;;;;;;;26.38;36.67;102334.50;5069336;28;20027;-69
2022/07/18 07:31:55;;;;;;;9.93;6.65;;;;;;;26.45;36.42;102334.16;5070371;28;20484;-72
2022/07/18 07:34:20;;;;;;;12.05;7.15;;;;;;;26.44;36.76;102344.38;5070779;28;20040;-72
2022/07/18 07:36:46;;;;;;;10.80;6.85;;;;;;;26.45;36.62;102336.91;5069789;28;20036;-70
2022/07/18 07:39:11;;;;;;;14.45;7.55;;;;;;;26.65;36.59;102351.25;5068487;28;20134;-70
2022/07/18 07:41:36;;;;;;;9.50;6.57;;;;;;;26.69;36.68;102355.06;5070277;28;20041;-71
2022/07/18 07:44:02;;;;;;;14.52;6.55;;;;;;;26.65;36.81;102355.97;5070475;28;20024;-71
2022/07/18 07:46:27;;;;;;;11.40;6.47;;;;;;;26.54;36.75;102354.44;5070313;28;20028;-71
2022/07/18 07:48:53;;;;;;;8.68;5.70;;;;;;;26.93;35.65;102350.34;5068161;28;20037;-70
2022/07/18 07:51:18;;;;;;;10.15;5.45;;;;;;;26.85;35.83;102353.75;5068209;28;20032;-71
2022/07/18 07:53:44;;;;;;;11.23;5.72;;;;;;;26.98;36.34;102352.22;5070228;28;20031;-72
2022/07/18 07:56:10;;;;;;;12.05;5.18;;;;;;;27.33;35.73;102337.88;5070205;28;20032;-70
2022/07/18 07:58:36;;;;;;;9.18;5.10;;;;;;;27.43;35.72;102336.91;5069387;28;20373;-72
2022/07/18 08:01:01;;;;;;;9.35;5.45;;;;;;;27.60;35.85;102331.63;5069490;28;20036;-71
2022/07/18 08:03:27;;;;;;;10.95;5.15;;;;;;;27.70;34.92;102335.03;5069589;28;20407;-71
2022/07/18 08:05:52;;;;;;;9.77;5.03;;;;;;;27.89;34.49;102331.38;5067708;28;20044;-72
2022/07/18 08:08:18;;;;;;;9.50;4.88;;;;;;;27.70;34.92;102323.16;5066681;28;20366;-71
2022/07/18 08:10:44;;;;;;;9.25;4.47;;;;;;;28.04;34.58;102317.28;5065276;28;20118;-69
2022/07/18 08:13:11;;;;;;;5.35;4.00;;;;;;;28.24;33.87;102319.66;5064941;28;20652;-71
2022/07/18 08:15:37;;;;;;;8.43;4.20;;;;;;;28.34;33.72;102317.47;5063856;28;20047;-70
2022/07/18 08:18:03;;;;;;;7.00;3.53;;;;;;;28.47;32.29;102308.34;5065454;28;20182;-72
2022/07/18 08:20:30;;;;;;;9.10;3.15;;;;;;;28.41;32.31;102309.59;5065425;28;20044;-70
2022/07/18 08:23:07;;;;;;;7.55;3.10;;;;;;;28.79;31.98;102306.56;5065408;28;20033;-71
2022/07/18 08:25:35;;;;;;;6.53;3.08;;;;;;;28.85;32.25;102308.09;5066275;28;20071;-72
2022/07/18 08:28:02;;;;;;;10.45;2.83;;;;;;;29.11;31.26;102309.13;5066751;28;20052;-72
2022/07/18 08:30:28;;;;;;;7.90;2.75;;;;;;;29.20;30.83;102301.72;5063070;28;20161;-72
2022/07/18 08:32:54;;;;;;;7.57;2.40;;;;;;;29.31;30.71;102300.31;5061466;28;20492;-72
2022/07/18 08:35:20;;;;;;;6.65;3.47;;;;;;;29.59;30.18;102301.00;5061568;28;20988;-71
2022/07/18 08:37:45;;;;;;;10.73;2.80;;;;;;;29.71;29.69;102295.69;5062234;28;20388;-69
2022/07/18 08:40:11;;;;;;;4.05;1.98;;;;;;;29.89;29.65;102294.66;5062035;28;20032;-70
2022/07/18 08:42:37;;;;;;;7.25;2.15;;;;;;;29.83;29.16;102299.53;5065363;28;20091;-71
2022/07/18 08:45:04;;;;;;;4.30;2.40;;;;;;;30.03;28.55;102296.19;5065622;28;20120;-71
2022/07/18 08:47:30;;;;;;;7.88;1.70;;;;;;;30.14;28.74;102307.78;5033569;28;20645;-71
2022/07/18 08:49:56;;;;;;;5.07;2.00;;;;;;;30.44;27.68;102308.88;5072149;28;20039;-71
2022/07/18 08:52:22;;;;;;;5.25;2.05;;;;;;;30.62;27.54;102307.78;5076691;28;20039;-71
2022/07/18 08:54:51;;;;;;;6.72;2.22;;;;;;;30.83;27.96;102301.28;5076199;28;20349;-73
2022/07/18 08:57:17;;;;;;;4.05;1.70;;;;;;;30.89;27.92;102304.72;5074381;28;20514;-73
2022/07/18 08:59:42;;;;;;;8.13;2.03;;;;;;;31.05;26.99;102311.41;5074535;28;20669;-70
2022/07/18 09:02:08;;;;;;;4.95;1.60;;;;;;;31.29;26.14;102297.84;5079891;28;20035;-73
2022/07/18 09:04:38;;;;;;;9.50;2.95;;;;;;;31.26;26.05;102290.16;5082094;28;20032;-71
2022/07/18 09:07:06;;;;;;;4.68;1.90;;;;;;;31.28;25.82;102306.47;5076167;28;20085;-70
2022/07/18 09:09:31;;;;;;;7.22;2.28;;;;;;;31.48;25.57;102303.88;5078818;28;20046;-69
2022/07/18 09:12:01;;;;;;;9.98;1.98;;;;;;;31.47;25.61;102304.19;5077441;28;20049;-69
2022/07/18 09:14:38;;;;;;;14.95;2.35;;;;;;;31.51;24.48;102291.28;5056095;28;20040;-71
2022/07/18 09:17:17;;;;;;;14.57;1.92;;;;;;;31.91;24.54;102295.38;5074267;28;20033;-71
2022/07/18 09:20:01;;;;;;;12.77;2.30;;;;;;;32.27;24.59;102290.16;5074208;28;20056;-72
2022/07/18 09:22:30;;;;;;;9.80;2.47;;;;;;;32.47;24.31;102291.34;5050628;28;20093;-74
2022/07/18 09:25:07;;;;;;;7.72;1.95;;;;;;;32.67;23.32;102280.22;5084596;28;20130;-71
2022/07/18 09:27:36;;;;;;;10.10;2.40;;;;;;;32.53;23.83;102292.78;5067147;28;20032;-71
2022/07/18 09:30:17;;;;;;;7.00;1.88;;;;;;;32.69;23.59;102286.25;5067260;28;20057;-70
2022/07/18 09:33:06;;;;;;;6.90;1.88;;;;;;;32.97;23.41;102272.63;5084860;28;20047;-70
2022/07/18 09:35:46;;;;;;;15.55;1.70;;;;;;;33.24;22.47;102272.00;5084355;28;20028;-70
2022/07/18 09:38:16;;;;;;;3.13;1.40;;;;;;;33.42;21.97;102279.03;5085589;28;20415;-70
2022/07/18 09:40:52;;;;;;;4.47;1.77;;;;;;;33.63;21.31;102273.44;5082423;28;20039;-71
2022/07/18 09:43:20;;;;;;;10.27;1.88;;;;;;;33.62;21.33;102269.81;5085227;28;20118;-71
2022/07/18 09:45:48;;;;;;;5.43;1.83;;;;;;;33.77;20.67;102273.09;5084249;28;20047;-72
2022/07/18 09:48:20;;;;;;;3.83;1.25;;;;;;;33.82;19.84;102272.84;5084949;28;20032;-72
2022/07/18 09:51:00;;;;;;;4.05;1.55;;;;;;;33.98;18.40;102263.47;5084700;28;20043;-69
2022/07/18 09:53:36;;;;;;;6.70;1.42;;;;;;;33.90;19.02;102258.78;5082824;28;20031;-70
2022/07/18 09:56:24;;;;;;;20.38;2.33;;;;;;;34.30;18.87;102256.91;5084844;28;20035;-69
2022/07/18 09:58:54;;;;;;;3.33;1.63;;;;;;;34.43;17.78;102255.75;5082654;28;20138;-69
2022/07/18 10:01:20;;;;;;;3.97;1.38;;;;;;;34.94;17.46;102267.22;5085190;28;20032;-68
2022/07/18 10:03:48;;;;;;;12.98;1.20;;;;;;;35.06;17.47;102259.66;5084700;28;20218;-70
2022/07/18 10:06:15;;;;;;;2.97;1.35;;;;;;;35.05;17.55;102257.19;5082538;28;20044;-70
2022/07/18 10:08:40;;;;;;;2.80;1.20;;;;;;;34.93;17.43;102252.44;5080989;28;20640;-69
2022/07/18 10:11:06;;;;;;;4.00;1.20;;;;;;;35.22;17.26;102246.50;5083337;28;20409;-69
2022/07/18 10:13:34;;;;;;;8.82;1.50;;;;;;;35.32;17.87;102250.75;5083693;28;20034;-69
2022/07/18 10:16:00;;;;;;;3.22;0.82;;;;;;;35.57;17.87;102245.84;5084002;28;20040;-70
2022/07/18 10:18:30;;;;;;;4.28;1.20;;;;;;;35.88;17.11;102246.63;5084098;28;20031;-68
2022/07/18 10:21:04;;;;;;;5.95;1.27;;;;;;;35.81;17.00;102251.25;5083276;28;20052;-68
2022/07/18 10:23:39;;;;;;;4.15;1.27;;;;;;;35.26;16.43;102244.59;5081072;28;20038;-69
2022/07/18 10:26:15;;;;;;;2.50;1.20;;;;;;;35.62;16.17;102254.75;5083304;28;20034;-70
2022/07/18 10:28:55;;;;;;;4.32;1.30;;;;;;;36.12;16.22;102237.22;5083462;28;20033;-71
2022/07/18 10:31:28;;;;;;;3.03;1.40;;;;;;;36.30;16.85;102246.03;5064562;28;20042;-70
2022/07/18 10:34:09;;;;;;;2.80;1.40;;;;;;;36.25;16.50;102252.72;5082196;28;20060;-69
2022/07/18 10:36:50;;;;;;;8.88;1.45;;;;;;;36.12;16.47;102252.06;5081343;28;20147;-69
2022/07/18 10:39:21;;;;;;;3.95;1.38;;;;;;;36.11;16.08;102250.41;5062715;28;20032;-69
2022/07/18 10:41:46;;;;;;;8.20;1.77;;;;;;;36.19;16.65;102251.38;5083346;28;20036;-70
2022/07/18 10:44:20;;;;;;;3.92;1.40;;;;;;;36.76;16.22;102253.47;5084077;28;20131;-70
2022/07/18 10:47:09;;;;;;;3.63;1.55;;;;;;;35.91;16.79;102245.09;5082774;28;20043;-69
2022/07/18 10:49:51;;;;;;;4.03;1.55;;;;;;;36.10;16.59;102251.59;5082005;28;20032;-68
2022/07/18 10:52:26;;;;;;;3.13;1.30;;;;;;;36.27;17.55;102238.34;5081053;28;20117;-71
2022/07/18 10:55:04;;;;;;;6.07;1.63;;;;;;;36.28;16.98;102246.41;5080760;28;20205;-69
2022/07/18 10:57:29;;;;;;;2.20;1.40;;;;;;;36.00;17.74;102246.56;5085337;28;20180;-68
2022/07/18 11:00:08;;;;;;;5.38;1.83;;;;;;;35.69;18.16;102245.75;5097621;28;20138;-70
2022/07/18 11:02:38;;;;;;;6.07;1.33;;;;;;;35.93;17.26;102242.78;5084255;28;20636;-69
2022/07/18 11:05:24;;;;;;;3.70;1.10;;;;;;;36.55;17.85;102241.81;5084081;28;20115;-70
2022/07/18 11:07:58;;;;;;;4.03;1.70;;;;;;;36.41;17.79;102230.28;4980462;28;20520;-70
2022/07/18 11:10:43;;;;;;;5.93;1.77;;;;;;;36.75;18.04;102230.25;4981610;28;20137;-69
2022/07/18 11:13:24;;;;;;;3.80;1.92;;;;;;;36.44;18.02;102232.38;4980454;28;20070;-70
2022/07/18 11:15:57;;;;;;;6.82;2.28;;;;;;;36.72;17.75;102224.53;4981941;28;20035;-69
2022/07/18 11:18:23;;;;;;;5.60;1.90;;;;;;;36.26;18.05;102226.34;4981945;28;20046;-70
2022/07/18 11:20:49;;;;;;;4.85;1.58;;;;;;;36.66;17.59;102229.63;4981088;28;20058;-71
2022/07/18 11:23:42;;;;;;;6.05;2.65;;;;;;;36.28;17.53;102228.78;4990144;28;20147;-68
2022/07/18 11:26:16;;;;;;;3.13;1.45;;;;;;;36.12;17.65;102224.06;4983080;28;20065;-69